Time;durP1;ratioP1;P1;durP2;ratioP2;P2;SDS_P1;SDS_P2;PMS_P1;PMS_P2;Temp;Humidity;BMP_temperature;BMP_pressure;BME280_temperature;BME280_humidity;BME280_pressure;Samples;Min_cycle;Max_cycle;Signal;HPM_P1;HPM_P2
2021/12/02 00:01:26;;;;;;;15.90;2.08;;;;;;;;;;4942699;28;107098;-70
2021/12/02 00:03:55;;;;;;;7.50;1.60;;;;;;;;;;4948556;28;107446;-70
2021/12/02 00:06:21;;;;;;;13.75;1.83;;;;;;;;;;4944090;28;106934;-70
2021/12/02 00:08:49;;;;;;;7.32;1.50;;;;;;;;;;4940164;28;108381;-73
2021/12/02 00:11:16;;;;;;;8.05;1.30;;;;;;;;;;4943262;28;107709;-70
2021/12/02 00:13:53;;;;;;;13.05;1.85;;;;;;;;;;4945892;28;106940;-70
2021/12/02 00:21:45;;;;;;;5.68;1.00;;;;;;;;;;4943960;28;108552;-70
2021/12/02 00:24:14;;;;;;;5.55;0.90;;;;;;;;;;4946710;28;106392;-70
2021/12/02 00:26:40;;;;;;;4.93;0.90;;;;;;;;;;4948480;28;106327;-71
2021/12/02 00:29:08;;;;;;;7.28;0.90;;;;;;;;;;4925437;28;109308;-70
2021/12/02 00:31:36;;;;;;;2.45;0.75;;;;;;;;;;4929627;28;106095;-70
2021/12/02 00:34:04;;;;;;;7.65;1.00;;;;;;;;;;4958092;28;105862;-69
2021/12/02 00:36:31;;;;;;;7.43;1.17;;;;;;;;;;4946622;28;106042;-70
2021/12/02 00:38:59;;;;;;;5.72;0.70;;;;;;;;;;4948838;28;106338;-70
2021/12/02 00:41:26;;;;;;;2.97;0.80;;;;;;;;;;4947019;28;107455;-71
2021/12/02 00:43:54;;;;;;;7.30;0.90;;;;;;;;;;4953627;28;106485;-71
2021/12/02 00:46:21;;;;;;;4.90;1.08;;;;;;;;;;4951328;28;106065;-71
2021/12/02 00:48:49;;;;;;;3.78;1.00;;;;;;;;;;4950784;28;107355;-71
2021/12/02 00:51:16;;;;;;;4.57;1.00;;;;;;;;;;4942494;28;105913;-71
2021/12/02 00:53:46;;;;;;;5.50;1.10;;;;;;;;;;4948770;28;107044;-71
2021/12/02 00:56:13;;;;;;;3.13;0.90;;;;;;;;;;4952315;28;106151;-71
2021/12/02 00:58:40;;;;;;;3.67;1.00;;;;;;;;;;4932803;28;106045;-71
2021/12/02 01:01:07;;;;;;;2.28;0.70;;;;;;;;;;4949814;28;106874;-70
2021/12/02 01:03:37;;;;;;;9.73;0.98;;;;;;;;;;4949440;28;108140;-71
2021/12/02 01:06:04;;;;;;;13.45;1.92;;;;;;;;;;4949290;28;106508;-71
2021/12/02 01:08:31;;;;;;;7.22;1.00;;;;;;;;;;4949781;28;108526;-71
2021/12/02 01:10:58;;;;;;;7.07;1.00;;;;;;;;;;4948914;28;106765;-71
2021/12/02 01:13:25;;;;;;;6.07;0.90;;;;;;;;;;4949935;28;107019;-70
2021/12/02 01:15:51;;;;;;;4.30;0.75;;;;;;;;;;4934927;28;109289;-70
2021/12/02 01:18:18;;;;;;;2.08;0.82;;;;;;;;;;4950351;28;107491;-70
2021/12/02 01:20:47;;;;;;;9.23;1.60;;;;;;;;;;4949912;28;107393;-71
2021/12/02 01:23:14;;;;;;;8.82;1.17;;;;;;;;;;4939315;28;105956;-71
2021/12/02 01:25:42;;;;;;;4.57;0.90;;;;;;;;;;4948280;28;107660;-70
2021/12/02 01:28:09;;;;;;;4.95;0.85;;;;;;;;;;4946772;28;107572;-71
2021/12/02 01:30:35;;;;;;;8.30;1.05;;;;;;;;;;4948993;28;106413;-70
2021/12/02 01:33:03;;;;;;;5.43;0.80;;;;;;;;;;4947963;28;107263;-70
2021/12/02 01:35:30;;;;;;;4.80;0.70;;;;;;;;;;4949674;28;107392;-70
2021/12/02 01:37:57;;;;;;;4.25;1.00;;;;;;;;;;4934865;28;106610;-71
2021/12/02 01:40:24;;;;;;;7.00;1.10;;;;;;;;;;4948203;28;107508;-71
2021/12/02 01:42:52;;;;;;;2.35;0.82;;;;;;;;;;4950898;28;105622;-71
2021/12/02 01:45:23;;;;;;;4.50;0.75;;;;;;;;;;4949758;28;107439;-71
2021/12/02 01:47:51;;;;;;;4.90;0.90;;;;;;;;;;4941133;28;109707;-71
2021/12/02 01:50:21;;;;;;;6.30;1.10;;;;;;;;;;4944893;28;107178;-71
2021/12/02 01:52:49;;;;;;;8.43;0.98;;;;;;;;;;4944389;28;106945;-71
2021/12/02 01:55:16;;;;;;;3.95;0.90;;;;;;;;;;4945790;28;106397;-71
2021/12/02 01:57:47;;;;;;;6.50;1.02;;;;;;;;;;4953062;28;107548;-70
2021/12/02 02:00:15;;;;;;;6.35;0.93;;;;;;;;;;4937963;28;106760;-71
2021/12/02 02:02:42;;;;;;;9.63;1.02;;;;;;;;;;4928641;28;107482;-71
2021/12/02 02:05:13;;;;;;;4.75;1.02;;;;;;;;;;4954110;28;107720;-70
2021/12/02 02:07:52;;;;;;;6.07;0.80;;;;;;;;;;4951394;22;107541;-62
2021/12/02 02:10:19;;;;;;;7.68;1.20;;;;;;;;;;4939056;28;106529;-63
2021/12/02 02:12:45;;;;;;;7.45;1.05;;;;;;;;;;4942474;28;107166;-62
2021/12/02 02:15:11;;;;;;;6.55;0.63;;;;;;;;;;4943024;28;106699;-62
2021/12/02 02:17:55;;;;;;;4.28;0.88;;;;;;;;;;4941160;28;106391;-63
2021/12/02 02:20:22;;;;;;;4.28;0.70;;;;;;;;;;4946698;28;107042;-62
2021/12/02 02:22:49;;;;;;;6.40;0.88;;;;;;;;;;4931065;28;107644;-63
2021/12/02 02:25:18;;;;;;;4.32;0.80;;;;;;;;;;4926594;28;107591;-62
2021/12/02 02:27:45;;;;;;;4.63;1.05;;;;;;;;;;4945058;28;107210;-62
2021/12/02 02:30:11;;;;;;;7.18;0.80;;;;;;;;;;4937456;28;106424;-63
2021/12/02 02:32:38;;;;;;;5.50;0.80;;;;;;;;;;4945470;28;107564;-63
2021/12/02 02:35:05;;;;;;;3.25;0.90;;;;;;;;;;4935514;28;107405;-62
2021/12/02 02:37:34;;;;;;;3.28;0.75;;;;;;;;;;4939531;28;106300;-62
2021/12/02 02:40:05;;;;;;;7.77;1.90;;;;;;;;;;4936847;28;107375;-62
2021/12/02 02:42:32;;;;;;;3.90;0.65;;;;;;;;;;4937111;28;107308;-62
2021/12/02 02:44:59;;;;;;;5.78;1.10;;;;;;;;;;4937993;28;105934;-62
2021/12/02 02:47:27;;;;;;;10.02;0.90;;;;;;;;;;4944761;28;106323;-62
2021/12/02 02:49:53;;;;;;;4.88;0.60;;;;;;;;;;4939607;28;107212;-64
2021/12/02 02:52:20;;;;;;;3.97;1.02;;;;;;;;;;4945060;28;107164;-62
2021/12/02 02:54:47;;;;;;;12.00;1.48;;;;;;;;;;4943084;28;106727;-62
2021/12/02 02:57:17;;;;;;;4.68;0.70;;;;;;;;;;4943866;28;107843;-62
2021/12/02 03:02:18;;;;;;;6.88;1.00;;;;;;;;;;4940890;28;135602;-62
2021/12/02 03:04:59;;;;;;;6.20;0.85;;;;;;;;;;4947717;28;106711;-62
2021/12/02 03:07:38;;;;;;;5.55;0.77;;;;;;;;;;4943018;28;107010;-62
2021/12/02 03:10:12;;;;;;;6.20;1.10;;;;;;;;;;4940919;28;106332;-62
2021/12/02 03:12:50;;;;;;;2.63;0.80;;;;;;;;;;4928403;28;108710;-62
2021/12/02 03:17:44;;;;;;;5.95;0.90;;;;;;;;;;4944560;28;106635;-62
2021/12/02 03:20:11;;;;;;;8.00;1.00;;;;;;;;;;4934742;28;107167;-62
2021/12/02 03:22:38;;;;;;;5.95;0.85;;;;;;;;;;4941185;28;107104;-62
2021/12/02 03:25:05;;;;;;;2.20;0.70;;;;;;;;;;4920503;28;106317;-62
2021/12/02 03:27:32;;;;;;;9.23;1.02;;;;;;;;;;4947090;28;106847;-62
2021/12/02 03:30:00;;;;;;;7.90;1.00;;;;;;;;;;4939319;28;107197;-62
2021/12/02 03:32:26;;;;;;;14.15;1.48;;;;;;;;;;4945436;28;107272;-62
2021/12/02 03:34:52;;;;;;;2.72;1.00;;;;;;;;;;4942229;28;107376;-62
2021/12/02 03:37:19;;;;;;;6.53;1.20;;;;;;;;;;4937851;28;106917;-64
2021/12/02 03:39:46;;;;;;;7.15;1.02;;;;;;;;;;4939491;28;107963;-62
2021/12/02 03:42:13;;;;;;;7.00;1.15;;;;;;;;;;4923132;28;107751;-62
2021/12/02 03:44:39;;;;;;;7.88;0.90;;;;;;;;;;4945876;28;106771;-63
2021/12/02 03:47:05;;;;;;;3.80;0.88;;;;;;;;;;4930520;28;106989;-62
2021/12/02 03:49:32;;;;;;;6.45;1.52;;;;;;;;;;4946379;28;108614;-62
2021/12/02 03:51:58;;;;;;;4.85;0.80;;;;;;;;;;4939844;28;106164;-62
2021/12/02 03:54:25;;;;;;;4.72;0.73;;;;;;;;;;4946565;28;107382;-63
2021/12/02 03:56:51;;;;;;;10.13;1.25;;;;;;;;;;4926352;28;106148;-62
2021/12/02 03:59:17;;;;;;;7.95;1.10;;;;;;;;;;4943736;28;106138;-64
2021/12/02 04:01:44;;;;;;;7.88;1.35;;;;;;;;;;4943767;28;107868;-62
2021/12/02 04:04:10;;;;;;;5.15;1.00;;;;;;;;;;4925888;28;109382;-63
2021/12/02 04:06:37;;;;;;;9.95;1.38;;;;;;;;;;4945323;28;107665;-62
2021/12/02 04:09:10;;;;;;;11.75;1.30;;;;;;;;;;4947368;28;106184;-62
2021/12/02 04:15:25;;;;;;;7.32;1.08;;;;;;;;;;4944286;28;107957;-62
2021/12/02 04:17:19;;;;;;;9.10;1.50;;;;;;;;;;4933396;28;107339;-62
2021/12/02 04:19:46;;;;;;;5.72;0.95;;;;;;;;;;4944953;28;107000;-62
2021/12/02 04:22:12;;;;;;;6.18;1.20;;;;;;;;;;4947466;28;109543;-62
2021/12/02 04:24:38;;;;;;;7.20;1.00;;;;;;;;;;4947239;28;106162;-62
2021/12/02 04:27:05;;;;;;;6.25;1.00;;;;;;;;;;4929194;28;107416;-62
2021/12/02 04:29:31;;;;;;;2.38;0.68;;;;;;;;;;4926264;28;108189;-63
2021/12/02 04:31:58;;;;;;;7.35;1.25;;;;;;;;;;4947337;28;106833;-63
2021/12/02 04:34:24;;;;;;;5.65;0.68;;;;;;;;;;4949329;28;106222;-62
2021/12/02 04:36:51;;;;;;;6.30;0.90;;;;;;;;;;4943271;28;106328;-63
2021/12/02 04:39:18;;;;;;;8.88;0.73;;;;;;;;;;4946414;28;106265;-62
2021/12/02 04:41:44;;;;;;;7.13;1.17;;;;;;;;;;4945114;28;107130;-62
2021/12/02 04:44:13;;;;;;;7.35;0.93;;;;;;;;;;4945979;28;105928;-62
2021/12/02 04:46:39;;;;;;;4.40;0.88;;;;;;;;;;4946929;28;106235;-64
2021/12/02 04:49:06;;;;;;;5.45;1.00;;;;;;;;;;4941300;28;106971;-62
2021/12/02 04:51:32;;;;;;;4.28;0.68;;;;;;;;;;4932024;28;107128;-62
2021/12/02 04:53:59;;;;;;;6.15;0.70;;;;;;;;;;4942414;28;106009;-63
2021/12/02 04:56:25;;;;;;;4.88;0.60;;;;;;;;;;4943581;28;107598;-63
2021/12/02 04:58:51;;;;;;;2.85;0.50;;;;;;;;;;4943473;28;108405;-62
2021/12/02 05:01:18;;;;;;;5.30;0.90;;;;;;;;;;4947246;28;106584;-63
2021/12/02 05:03:44;;;;;;;5.55;0.88;;;;;;;;;;4944035;28;105910;-62
2021/12/02 05:06:13;;;;;;;3.75;0.90;;;;;;;;;;4946071;28;106751;-62
2021/12/02 05:08:39;;;;;;;4.32;0.55;;;;;;;;;;4926773;28;106567;-63
2021/12/02 05:11:06;;;;;;;6.60;1.38;;;;;;;;;;4925323;28;108125;-62
2021/12/02 05:13:32;;;;;;;4.82;0.82;;;;;;;;;;4945159;28;107274;-65
2021/12/02 05:15:59;;;;;;;5.88;0.88;;;;;;;;;;4946904;28;106305;-62
2021/12/02 05:18:27;;;;;;;8.25;0.90;;;;;;;;;;4945140;28;108347;-62
2021/12/02 05:20:54;;;;;;;3.17;0.80;;;;;;;;;;4943760;28;108267;-63
2021/12/02 05:23:20;;;;;;;7.20;0.60;;;;;;;;;;4943069;28;106479;-61
2021/12/02 05:25:47;;;;;;;9.02;1.15;;;;;;;;;;4941424;28;107525;-62
2021/12/02 05:28:18;;;;;;;3.65;0.80;;;;;;;;;;4946367;28;107742;-62
2021/12/02 05:30:45;;;;;;;6.60;0.60;;;;;;;;;;4944508;28;106385;-62
2021/12/02 05:33:11;;;;;;;3.55;0.85;;;;;;;;;;4946674;28;106310;-62
2021/12/02 05:35:38;;;;;;;4.22;0.88;;;;;;;;;;4945292;28;107362;-62
2021/12/02 05:38:04;;;;;;;3.15;0.90;;;;;;;;;;4927289;28;107538;-61
2021/12/02 05:40:31;;;;;;;3.25;0.47;;;;;;;;;;4940149;28;106571;-62
2021/12/02 05:42:57;;;;;;;8.70;1.08;;;;;;;;;;4942029;28;106292;-62
2021/12/02 05:45:24;;;;;;;4.90;0.60;;;;;;;;;;4945342;28;107049;-62
2021/12/02 05:47:50;;;;;;;5.57;0.90;;;;;;;;;;4942255;28;108354;-62
2021/12/02 05:50:16;;;;;;;6.38;0.98;;;;;;;;;;4925671;28;106220;-62
2021/12/02 05:52:43;;;;;;;6.85;0.80;;;;;;;;;;4943690;28;107651;-62
2021/12/02 05:55:09;;;;;;;2.90;0.70;;;;;;;;;;4942230;28;106569;-62
2021/12/02 05:57:35;;;;;;;5.88;0.90;;;;;;;;;;4928121;28;106065;-62
2021/12/02 06:00:03;;;;;;;3.17;1.13;;;;;;;;;;4948177;28;107167;-62
2021/12/02 06:02:37;;;;;;;2.92;0.80;;;;;;;;;;4938788;28;106486;-62
2021/12/02 06:05:04;;;;;;;6.53;1.00;;;;;;;;;;4939230;28;109393;-62
2021/12/02 06:07:31;;;;;;;4.00;0.70;;;;;;;;;;4946535;28;107658;-62
2021/12/02 06:09:58;;;;;;;8.60;1.08;;;;;;;;;;4938864;28;108348;-61
2021/12/02 06:12:24;;;;;;;7.50;1.30;;;;;;;;;;4941625;28;105887;-62
2021/12/02 06:14:51;;;;;;;2.70;0.98;;;;;;;;;;4943290;28;107495;-61
2021/12/02 06:17:17;;;;;;;4.38;0.75;;;;;;;;;;4920125;28;105945;-62
2021/12/02 06:19:43;;;;;;;3.30;0.90;;;;;;;;;;4940114;28;106400;-62
2021/12/02 06:22:10;;;;;;;4.57;0.90;;;;;;;;;;4941337;28;107544;-62
2021/12/02 06:24:48;;;;;;;4.38;0.88;;;;;;;;;;4941769;28;107919;-61
2021/12/02 06:27:14;;;;;;;5.85;2.55;;;;;;;;;;4936950;28;106929;-62
2021/12/02 06:29:44;;;;;;;9.02;3.45;;;;;;;;;;4943334;28;105994;-65
2021/12/02 06:32:10;;;;;;;4.72;1.63;;;;;;;;;;4944902;28;106527;-63
2021/12/02 06:34:37;;;;;;;6.43;2.05;;;;;;;;;;4945887;28;106967;-63
2021/12/02 06:37:03;;;;;;;6.15;2.53;;;;;;;;;;4937346;28;106124;-63
2021/12/02 06:39:30;;;;;;;13.00;2.45;;;;;;;;;;4942341;28;106754;-63
2021/12/02 06:41:57;;;;;;;5.70;2.40;;;;;;;;;;4946334;28;106809;-63
2021/12/02 06:44:23;;;;;;;7.82;1.30;;;;;;;;;;4945242;28;106206;-65
2021/12/02 06:46:50;;;;;;;3.60;1.10;;;;;;;;;;4941176;28;107536;-63
2021/12/02 06:49:16;;;;;;;8.88;1.52;;;;;;;;;;4932871;28;106381;-63
2021/12/02 06:51:42;;;;;;;6.25;1.20;;;;;;;;;;4943579;28;106809;-63
2021/12/02 06:54:09;;;;;;;6.68;1.63;;;;;;;;;;4938610;28;107780;-63
2021/12/02 06:56:49;;;;;;;5.93;0.98;;;;;;;;;;4943427;28;105918;-62
2021/12/02 06:59:16;;;;;;;3.30;1.20;;;;;;;;;;4939980;28;106880;-61
2021/12/02 07:01:43;;;;;;;4.80;1.25;;;;;;;;;;4935056;28;106277;-63
2021/12/02 07:04:09;;;;;;;5.10;1.30;;;;;;;;;;4944928;28;106201;-61
2021/12/02 07:06:38;;;;;;;7.15;1.85;;;;;;;;;;4947786;28;106634;-63
2021/12/02 07:09:05;;;;;;;11.05;4.10;;;;;;;;;;4943920;28;106548;-63
2021/12/02 07:11:32;;;;;;;10.52;2.40;;;;;;;;;;4931724;28;106995;-63
2021/12/02 07:14:05;;;;;;;12.70;3.97;;;;;;;;;;4926799;28;109416;-63
2021/12/02 07:16:32;;;;;;;10.15;3.05;;;;;;;;;;4946766;28;106390;-63
2021/12/02 07:19:02;;;;;;;9.82;3.58;;;;;;;;;;4945034;28;106650;-63
2021/12/02 07:21:28;;;;;;;12.65;4.00;;;;;;;;;;4948172;28;108217;-61
2021/12/02 07:23:54;;;;;;;10.02;3.42;;;;;;;;;;4946128;28;106036;-62
2021/12/02 07:26:21;;;;;;;6.20;1.77;;;;;;;;;;4948094;28;107449;-63
2021/12/02 07:28:48;;;;;;;7.70;1.40;;;;;;;;;;4945874;28;106153;-61
2021/12/02 07:31:15;;;;;;;7.35;1.30;;;;;;;;;;4954509;28;105917;-64
2021/12/02 07:33:43;;;;;;;8.98;1.40;;;;;;;;;;4946627;28;108296;-61
2021/12/02 07:36:09;;;;;;;3.95;0.90;;;;;;;;;;4943560;28;105818;-61
2021/12/02 07:38:37;;;;;;;5.28;0.90;;;;;;;;;;4924708;28;106264;-61
2021/12/02 07:41:05;;;;;;;5.07;0.95;;;;;;;;;;4944793;28;107379;-62
2021/12/02 07:43:36;;;;;;;8.73;1.02;;;;;;;;;;4941106;28;106403;-62
2021/12/02 07:46:02;;;;;;;4.45;0.90;;;;;;;;;;4940550;28;106975;-62
2021/12/02 07:48:29;;;;;;;3.08;0.70;;;;;;;;;;4949856;28;108442;-62
2021/12/02 07:51:00;;;;;;;1.73;0.63;;;;;;;;;;4948040;28;106860;-62
2021/12/02 07:53:26;;;;;;;3.42;0.80;;;;;;;;;;4946767;28;107989;-62
2021/12/02 07:55:54;;;;;;;4.20;0.80;;;;;;;;;;4942244;28;107019;-66
2021/12/02 07:58:21;;;;;;;3.15;0.77;;;;;;;;;;4948654;28;106649;-62
2021/12/02 08:00:48;;;;;;;9.95;1.02;;;;;;;;;;4942085;28;107242;-61
2021/12/02 08:03:15;;;;;;;5.50;0.95;;;;;;;;;;4926208;28;107734;-61
2021/12/02 08:05:42;;;;;;;3.42;0.70;;;;;;;;;;4941546;28;106485;-62
2021/12/02 08:08:09;;;;;;;2.60;0.80;;;;;;;;;;4943308;28;107487;-65
2021/12/02 08:10:36;;;;;;;1.83;0.70;;;;;;;;;;4948296;28;107547;-62
2021/12/02 08:13:03;;;;;;;3.65;0.93;;;;;;;;;;4947122;28;106260;-61
2021/12/02 08:15:30;;;;;;;3.05;0.70;;;;;;;;;;4944319;28;106295;-61
2021/12/02 08:17:58;;;;;;;4.38;1.00;;;;;;;;;;4945379;28;107067;-62
2021/12/02 08:20:25;;;;;;;1.77;0.80;;;;;;;;;;4947418;28;107457;-62
2021/12/02 08:22:52;;;;;;;3.20;0.82;;;;;;;;;;4945145;28;108302;-61
2021/12/02 08:25:20;;;;;;;3.15;1.00;;;;;;;;;;4945873;28;105866;-62
2021/12/02 08:27:48;;;;;;;4.90;0.77;;;;;;;;;;4941889;28;106629;-63
2021/12/02 08:30:15;;;;;;;4.28;1.60;;;;;;;;;;4929572;28;106068;-61
2021/12/02 08:32:43;;;;;;;3.85;1.30;;;;;;;;;;4952039;28;106587;-61
2021/12/02 08:35:10;;;;;;;5.45;1.00;;;;;;;;;;4947383;28;105935;-62
2021/12/02 08:37:41;;;;;;;4.20;1.08;;;;;;;;;;4942975;28;106796;-62
2021/12/02 08:40:08;;;;;;;4.07;0.90;;;;;;;;;;4946008;28;107314;-61
2021/12/02 08:42:35;;;;;;;3.65;0.90;;;;;;;;;;4946504;28;106394;-62
2021/12/02 08:45:02;;;;;;;10.10;1.73;;;;;;;;;;4944804;28;106562;-61
2021/12/02 08:47:29;;;;;;;10.45;2.17;;;;;;;;;;4945822;28;107779;-61
2021/12/02 08:49:56;;;;;;;5.28;1.40;;;;;;;;;;4946869;28;106257;-62
2021/12/02 08:52:23;;;;;;;4.40;1.02;;;;;;;;;;4929086;28;106789;-61
2021/12/02 08:54:50;;;;;;;6.32;0.90;;;;;;;;;;4946793;28;106588;-62
2021/12/02 08:57:31;;;;;;;6.38;1.10;;;;;;;;;;4938583;28;106958;-61
2021/12/02 08:59:57;;;;;;;4.53;1.00;;;;;;;;;;4938872;28;108718;-62
2021/12/02 09:02:23;;;;;;;7.25;1.13;;;;;;;;;;4943418;28;105902;-63
2021/12/02 09:04:50;;;;;;;4.65;0.90;;;;;;;;;;4943574;28;107963;-61
2021/12/02 09:07:16;;;;;;;2.92;0.70;;;;;;;;;;4941451;28;107844;-61
2021/12/02 09:09:43;;;;;;;10.23;1.33;;;;;;;;;;4946057;28;107848;-62
2021/12/02 09:12:09;;;;;;;10.80;1.20;;;;;;;;;;4948593;28;106814;-63
2021/12/02 09:14:36;;;;;;;4.35;0.70;;;;;;;;;;4941399;28;107472;-62
2021/12/02 09:17:03;;;;;;;8.48;1.10;;;;;;;;;;4948924;28;108409;-62
2021/12/02 09:19:29;;;;;;;8.15;1.10;;;;;;;;;;4937131;28;108219;-63
2021/12/02 09:21:56;;;;;;;5.32;0.90;;;;;;;;;;4922935;28;106351;-62
2021/12/02 09:24:22;;;;;;;6.05;1.38;;;;;;;;;;4940449;28;106176;-62
2021/12/02 09:26:49;;;;;;;6.30;1.15;;;;;;;;;;4937145;28;106393;-63
2021/12/02 09:29:17;;;;;;;7.63;1.38;;;;;;;;;;4939169;28;107150;-63
2021/12/02 09:31:44;;;;;;;8.73;1.10;;;;;;;;;;4941974;28;107575;-63
2021/12/02 09:34:11;;;;;;;6.13;1.20;;;;;;;;;;4940530;28;108116;-63
2021/12/02 09:36:37;;;;;;;5.40;0.90;;;;;;;;;;4941904;28;106679;-63
2021/12/02 09:39:05;;;;;;;4.70;1.00;;;;;;;;;;4940909;28;107433;-63
2021/12/02 09:41:32;;;;;;;5.05;0.93;;;;;;;;;;4943198;28;106248;-63
2021/12/02 09:43:59;;;;;;;7.20;1.17;;;;;;;;;;4944008;28;106393;-63
2021/12/02 09:46:25;;;;;;;7.30;1.20;;;;;;;;;;4940051;28;106534;-63
2021/12/02 09:48:53;;;;;;;4.93;0.88;;;;;;;;;;4941243;28;108272;-63
2021/12/02 09:51:26;;;;;;;4.13;0.98;;;;;;;;;;4937584;28;106855;-63
2021/12/02 09:54:16;;;;;;;4.97;0.73;;;;;;;;;;4942289;28;107319;-63
2021/12/02 09:56:46;;;;;;;5.18;0.73;;;;;;;;;;4938686;28;107672;-63
2021/12/02 09:59:25;;;;;;;;;;;;;;;;;;4938701;28;106642;-63
2021/12/02 10:01:55;;;;;;;4.35;0.70;;;;;;;;;;4938621;28;129041;-64
2021/12/02 10:04:23;;;;;;;9.07;1.05;;;;;;;;;;4936639;28;106848;-62
2021/12/02 10:07:02;;;;;;;1.88;0.70;;;;;;;;;;4937368;28;109137;-62
2021/12/02 10:09:39;;;;;;;4.93;1.30;;;;;;;;;;4940232;28;108742;-63
2021/12/02 10:12:16;;;;;;;5.75;0.90;;;;;;;;;;4936496;28;107528;-61
2021/12/02 10:14:48;;;;;;;4.30;1.08;;;;;;;;;;4939544;28;107042;-62
2021/12/02 10:17:23;;;;;;;8.60;1.35;;;;;;;;;;4943003;28;105676;-62
2021/12/02 10:20:01;;;;;;;8.50;1.00;;;;;;;;;;4945415;28;107982;-61
2021/12/02 10:22:27;;;;;;;2.17;0.88;;;;;;;;;;4946375;28;107365;-63
2021/12/02 10:24:53;;;;;;;3.30;0.95;;;;;;;;;;4943736;28;105752;-63
2021/12/02 10:27:20;;;;;;;3.72;0.82;;;;;;;;;;4946523;28;106401;-63
2021/12/02 10:29:47;;;;;;;3.25;0.80;;;;;;;;;;4943579;28;106534;-62
2021/12/02 10:32:24;;;;;;;1.98;0.70;;;;;;;;;;4946099;28;106810;-64
2021/12/02 10:34:57;;;;;;;3.67;0.85;;;;;;;;;;4943091;28;107871;-63
2021/12/02 10:37:24;;;;;;;1.42;0.70;;;;;;;;;;4939611;28;107644;-63
2021/12/02 10:40:11;;;;;;;3.97;0.90;;;;;;;;;;4946479;28;107350;-64
2021/12/02 10:42:41;;;;;;;3.17;0.80;;;;;;;;;;4943383;28;107382;-62
2021/12/02 10:45:20;;;;;;;3.65;0.90;;;;;;;;;;4945071;28;106211;-64
2021/12/02 10:47:51;;;;;;;2.10;0.70;;;;;;;;;;4945027;28;106291;-62
2021/12/02 10:50:18;;;;;;;6.35;0.60;;;;;;;;;;4943969;28;107275;-62
2021/12/02 10:52:44;;;;;;;3.08;0.70;;;;;;;;;;4948360;28;107680;-63
2021/12/02 10:55:12;;;;;;;1.80;0.63;;;;;;;;;;4938001;28;107496;-61
2021/12/02 10:57:44;;;;;;;3.40;0.70;;;;;;;;;;4943520;28;105919;-64
2021/12/02 11:00:12;;;;;;;2.35;0.80;;;;;;;;;;4937907;28;106864;-64
2021/12/02 11:02:42;;;;;;;4.85;0.65;;;;;;;;;;4931653;28;109791;-63
2021/12/02 11:05:09;;;;;;;2.08;0.60;;;;;;;;;;4941898;28;107985;-62
2021/12/02 11:07:39;;;;;;;2.85;0.60;;;;;;;;;;4940351;28;106824;-62
2021/12/02 11:10:07;;;;;;;1.15;0.50;;;;;;;;;;4944888;28;108811;-62
2021/12/02 11:12:34;;;;;;;2.38;0.60;;;;;;;;;;4945490;28;106904;-63
2021/12/02 11:15:03;;;;;;;0.90;0.50;;;;;;;;;;4941775;28;106587;-63
2021/12/02 11:17:32;;;;;;;0.77;0.50;;;;;;;;;;4944505;28;105963;-63
2021/12/02 11:19:59;;;;;;;0.80;0.40;;;;;;;;;;4942700;28;107058;-62
2021/12/02 11:22:27;;;;;;;3.10;0.63;;;;;;;;;;4940814;28;106387;-62
2021/12/02 11:24:53;;;;;;;2.05;0.60;;;;;;;;;;4938696;28;107998;-63
2021/12/02 11:27:22;;;;;;;1.85;0.70;;;;;;;;;;4942493;28;106152;-63
2021/12/02 11:29:50;;;;;;;2.28;0.80;;;;;;;;;;4948451;28;108099;-62
2021/12/02 11:32:23;;;;;;;1.33;0.60;;;;;;;;;;4942837;28;106914;-63
2021/12/02 11:35:12;;;;;;;3.80;0.82;;;;;;;;;;4945792;28;106317;-60
2021/12/02 11:37:40;;;;;;;1.53;0.70;;;;;;;;;;4947847;28;105860;-61
2021/12/02 11:40:12;;;;;;;2.75;0.85;;;;;;;;;;4944331;28;106833;-61
2021/12/02 11:42:39;;;;;;;4.50;1.00;;;;;;;;;;4936351;28;107501;-61
2021/12/02 11:45:07;;;;;;;2.35;0.90;;;;;;;;;;4941194;28;106097;-61
2021/12/02 11:47:34;;;;;;;1.17;0.77;;;;;;;;;;4940628;28;107041;-61
2021/12/02 11:50:01;;;;;;;3.80;1.17;;;;;;;;;;4946858;28;107374;-61
2021/12/02 11:52:28;;;;;;;2.75;0.82;;;;;;;;;;4940343;28;106805;-61
2021/12/02 11:54:58;;;;;;;2.95;0.80;;;;;;;;;;4945044;28;108393;-61
2021/12/02 11:57:24;;;;;;;;;;;;;;;;;;4926489;28;108359;-61
2021/12/02 11:59:50;;;;;;;9.18;1.00;;;;;;;;;;4942099;28;139689;-61
2021/12/02 12:02:17;;;;;;;2.72;0.93;;;;;;;;;;4941451;28;107856;-61
2021/12/02 12:05:13;;;;;;;2.85;1.00;;;;;;;;;;4941795;28;106475;-61
2021/12/02 12:07:42;;;;;;;1.50;1.00;;;;;;;;;;4925463;28;106579;-61
2021/12/02 12:10:26;;;;;;;3.20;1.33;;;;;;;;;;4940409;28;107412;-62
2021/12/02 12:12:53;;;;;;;4.80;1.58;;;;;;;;;;4943729;28;106768;-61
2021/12/02 12:15:33;;;;;;;2.75;1.30;;;;;;;;;;4938482;28;107374;-61
2021/12/02 12:18:01;;;;;;;3.40;1.20;;;;;;;;;;4939668;28;106342;-61
2021/12/02 12:20:46;;;;;;;2.40;1.50;;;;;;;;;;4940438;28;106940;-61
2021/12/02 12:23:32;;;;;;;4.60;1.90;;;;;;;;;;4939422;28;106511;-61
2021/12/02 12:26:09;;;;;;;5.57;1.65;;;;;;;;;;4941022;28;106397;-61
2021/12/02 12:29:02;;;;;;;3.58;1.48;;;;;;;;;;4944177;28;107030;-61
2021/12/02 12:31:29;;;;;;;3.72;1.60;;;;;;;;;;4918298;28;107751;-61
2021/12/02 12:33:58;;;;;;;3.05;1.48;;;;;;;;;;4940101;28;105982;-61
2021/12/02 12:36:43;;;;;;;2.88;1.35;;;;;;;;;;4944202;28;106621;-61
2021/12/02 12:39:20;;;;;;;2.55;1.23;;;;;;;;;;4941087;28;107436;-61
2021/12/02 12:42:07;;;;;;;4.20;1.80;;;;;;;;;;4943127;28;107694;-61
2021/12/02 12:44:50;;;;;;;3.33;1.33;;;;;;;;;;4943320;28;107323;-62
2021/12/02 12:47:18;;;;;;;2.95;1.40;;;;;;;;;;4943711;28;106100;-62
2021/12/02 12:49:47;;;;;;;3.47;1.48;;;;;;;;;;4947215;28;107611;-62
2021/12/02 12:52:14;;;;;;;6.47;1.38;;;;;;;;;;4943938;28;106366;-63
2021/12/02 12:54:41;;;;;;;4.28;1.60;;;;;;;;;;4944979;28;106668;-62
2021/12/02 12:57:08;;;;;;;4.70;1.30;;;;;;;;;;4949304;28;106237;-65
2021/12/02 12:59:47;;;;;;;2.47;1.48;;;;;;;;;;4948616;28;106771;-62
2021/12/02 13:02:15;;;;;;;3.45;1.85;;;;;;;;;;4943980;28;106411;-61
2021/12/02 13:04:52;;;;;;;4.30;1.80;;;;;;;;;;4926330;28;109358;-60
2021/12/02 13:07:40;;;;;;;4.47;1.80;;;;;;;;;;4943857;28;107002;-60
2021/12/02 13:10:12;;;;;;;4.60;2.10;;;;;;;;;;4946257;28;106821;-60
2021/12/02 13:12:47;;;;;;;3.95;1.92;;;;;;;;;;4942456;28;106285;-61
2021/12/02 13:15:15;;;;;;;3.42;1.70;;;;;;;;;;4923610;28;107429;-61
2021/12/02 13:17:46;;;;;;;5.72;1.88;;;;;;;;;;4933771;28;107477;-61
2021/12/02 13:20:33;;;;;;;3.72;1.85;;;;;;;;;;4939331;28;107148;-62
2021/12/02 13:23:12;;;;;;;8.15;2.10;;;;;;;;;;4942318;28;108238;-60
2021/12/02 13:25:50;;;;;;;7.83;2.30;;;;;;;;;;4945362;28;106728;-61
2021/12/02 13:28:17;;;;;;;6.35;1.83;;;;;;;;;;4946488;28;106357;-60
2021/12/02 13:30:48;;;;;;;4.97;2.05;;;;;;;;;;4938071;28;106188;-60
2021/12/02 13:33:15;;;;;;;3.70;1.50;;;;;;;;;;4946377;28;107412;-60
2021/12/02 13:35:41;;;;;;;4.63;1.83;;;;;;;;;;4945239;28;106178;-60
2021/12/02 13:38:09;;;;;;;5.85;1.80;;;;;;;;;;4944673;28;107066;-62
2021/12/02 13:40:36;;;;;;;5.03;2.22;;;;;;;;;;4938086;28;107625;-60
2021/12/02 13:43:03;;;;;;;3.90;2.08;;;;;;;;;;4939675;28;106842;-60
2021/12/02 13:45:31;;;;;;;7.15;2.25;;;;;;;;;;4939299;28;106393;-61
2021/12/02 13:48:13;;;;;;;4.90;2.25;;;;;;;;;;4945357;28;106177;-60
2021/12/02 13:50:42;;;;;;;5.43;2.15;;;;;;;;;;4943119;28;109131;-60
2021/12/02 13:53:09;;;;;;;8.52;2.47;;;;;;;;;;4939498;28;106400;-62
2021/12/02 13:55:37;;;;;;;7.18;2.17;;;;;;;;;;4940268;28;106181;-61
2021/12/02 13:58:30;;;;;;;6.05;2.40;;;;;;;;;;4938757;28;106769;-61
2021/12/02 14:00:53;;;;;;;5.22;2.30;;;;;;;;;;4940002;28;107741;-61
2021/12/02 14:03:21;;;;;;;6.35;2.13;;;;;;;;;;4939267;28;106807;-61
2021/12/02 14:05:53;;;;;;;6.28;2.15;;;;;;;;;;4944145;28;106819;-60
2021/12/02 14:08:23;;;;;;;5.32;1.95;;;;;;;;;;4925654;28;106125;-60
2021/12/02 14:10:51;;;;;;;6.78;2.10;;;;;;;;;;4929763;28;107144;-60
2021/12/02 14:13:18;;;;;;;6.60;2.40;;;;;;;;;;4942000;28;107608;-61
2021/12/02 14:15:47;;;;;;;7.77;2.00;;;;;;;;;;4942492;28;106645;-61
2021/12/02 14:18:20;;;;;;;6.43;2.00;;;;;;;;;;4941232;28;106350;-61
2021/12/02 14:20:57;;;;;;;4.28;1.88;;;;;;;;;;4939300;28;107557;-63
2021/12/02 14:23:26;;;;;;;4.20;1.80;;;;;;;;;;4935725;28;105948;-61
2021/12/02 14:25:54;;;;;;;4.95;2.08;;;;;;;;;;4945890;28;107651;-64
2021/12/02 14:28:21;;;;;;;5.07;1.73;;;;;;;;;;4943293;28;106840;-62
2021/12/02 14:30:55;;;;;;;4.85;2.10;;;;;;;;;;4940797;28;106977;-62
2021/12/02 14:33:23;;;;;;;5.25;1.90;;;;;;;;;;4943144;28;107546;-61
2021/12/02 14:36:05;;;;;;;3.50;1.70;;;;;;;;;;4941715;28;106005;-61
2021/12/02 14:38:33;;;;;;;5.55;1.98;;;;;;;;;;4940258;28;106664;-62
2021/12/02 14:41:16;;;;;;;8.18;2.50;;;;;;;;;;4941582;28;107882;-61
2021/12/02 14:43:47;;;;;;;3.55;1.80;;;;;;;;;;4943536;28;106369;-61
2021/12/02 14:46:33;;;;;;;4.40;1.88;;;;;;;;;;4940836;28;106782;-61
2021/12/02 14:49:14;;;;;;;5.35;1.73;;;;;;;;;;4937227;28;107994;-61
2021/12/02 14:51:43;;;;;;;5.78;1.30;;;;;;;;;;4941123;28;108391;-60
2021/12/02 14:54:09;;;;;;;6.93;1.80;;;;;;;;;;4941876;28;106931;-61
2021/12/02 14:56:39;;;;;;;7.13;1.80;;;;;;;;;;4941309;28;108119;-62